sensor_id;sensor_type;location;lat;lon;timestamp;P1;durP1;ratioP1;P2;durP2;ratioP2
72941;SDS011;69665;55.822;37.330;2024-02-21T00:00:45;12.93;;;5.68;;
72941;SDS011;69665;55.822;37.330;2024-02-21T00:03:11;13.98;;;5.40;;
72941;SDS011;69665;55.822;37.330;2024-02-21T00:05:36;10.70;;;5.30;;
72941;SDS011;69665;55.822;37.330;2024-02-21T00:08:02;13.65;;;5.82;;
72941;SDS011;69665;55.822;37.330;2024-02-21T00:10:31;13.63;;;6.53;;
72941;SDS011;69665;55.822;37.330;2024-02-21T00:13:00;12.20;;;5.68;;
72941;SDS011;69665;55.822;37.330;2024-02-21T00:15:26;13.35;;;5.20;;
72941;SDS011;69665;55.822;37.330;2024-02-21T00:17:51;15.05;;;6.75;;
72941;SDS011;69665;55.822;37.330;2024-02-21T00:20:17;10.43;;;5.47;;
72941;SDS011;69665;55.822;37.330;2024-02-21T00:22:43;13.15;;;6.25;;
72941;SDS011;69665;55.822;37.330;2024-02-21T00:25:09;10.85;;;5.82;;
72941;SDS011;69665;55.822;37.330;2024-02-21T00:27:35;13.25;;;5.43;;
72941;SDS011;69665;55.822;37.330;2024-02-21T00:30:01;10.40;;;4.80;;
72941;SDS011;69665;55.822;37.330;2024-02-21T00:32:27;11.68;;;5.10;;
72941;SDS011;69665;55.822;37.330;2024-02-21T00:34:53;15.00;;;5.63;;
72941;SDS011;69665;55.822;37.330;2024-02-21T00:37:18;11.07;;;5.10;;
72941;SDS011;69665;55.822;37.330;2024-02-21T00:39:44;12.70;;;5.03;;
72941;SDS011;69665;55.822;37.330;2024-02-21T00:42:10;13.90;;;5.38;;
72941;SDS011;69665;55.822;37.330;2024-02-21T00:44:35;18.35;;;6.45;;
72941;SDS011;69665;55.822;37.330;2024-02-21T00:47:01;14.52;;;5.57;;
72941;SDS011;69665;55.822;37.330;2024-02-21T00:49:26;15.60;;;5.40;;
72941;SDS011;69665;55.822;37.330;2024-02-21T00:51:52;11.88;;;5.63;;
72941;SDS011;69665;55.822;37.330;2024-02-21T00:54:17;13.88;;;6.32;;
72941;SDS011;69665;55.822;37.330;2024-02-21T00:56:43;13.13;;;5.43;;
72941;SDS011;69665;55.822;37.330;2024-02-21T00:59:08;19.13;;;5.82;;
72941;SDS011;69665;55.822;37.330;2024-02-21T01:01:34;15.27;;;6.13;;
72941;SDS011;69665;55.822;37.330;2024-02-21T01:03:59;13.10;;;5.57;;
72941;SDS011;69665;55.822;37.330;2024-02-21T01:06:25;12.20;;;5.90;;
72941;SDS011;69665;55.822;37.330;2024-02-21T01:08:51;13.70;;;5.85;;
72941;SDS011;69665;55.822;37.330;2024-02-21T01:11:16;14.43;;;6.00;;
72941;SDS011;69665;55.822;37.330;2024-02-21T01:13:42;13.40;;;6.25;;
72941;SDS011;69665;55.822;37.330;2024-02-21T01:16:08;12.02;;;6.07;;
72941;SDS011;69665;55.822;37.330;2024-02-21T01:18:34;11.20;;;5.72;;
72941;SDS011;69665;55.822;37.330;2024-02-21T01:21:02;11.85;;;5.90;;
72941;SDS011;69665;55.822;37.330;2024-02-21T01:23:28;15.05;;;6.35;;
72941;SDS011;69665;55.822;37.330;2024-02-21T01:25:53;12.10;;;5.57;;
72941;SDS011;69665;55.822;37.330;2024-02-21T01:28:20;13.45;;;5.85;;
72941;SDS011;69665;55.822;37.330;2024-02-21T01:30:46;12.63;;;5.15;;
72941;SDS011;69665;55.822;37.330;2024-02-21T01:33:11;12.10;;;6.05;;
72941;SDS011;69665;55.822;37.330;2024-02-21T01:35:37;14.75;;;6.63;;
72941;SDS011;69665;55.822;37.330;2024-02-21T01:38:02;12.10;;;5.88;;
72941;SDS011;69665;55.822;37.330;2024-02-21T01:40:29;11.77;;;5.72;;
72941;SDS011;69665;55.822;37.330;2024-02-21T01:42:55;9.38;;;4.80;;
72941;SDS011;69665;55.822;37.330;2024-02-21T01:45:21;12.43;;;5.85;;
72941;SDS011;69665;55.822;37.330;2024-02-21T01:47:47;12.50;;;6.45;;
72941;SDS011;69665;55.822;37.330;2024-02-21T01:50:14;11.95;;;5.60;;
72941;SDS011;69665;55.822;37.330;2024-02-21T01:52:42;11.70;;;5.43;;
72941;SDS011;69665;55.822;37.330;2024-02-21T01:55:10;16.10;;;6.47;;
72941;SDS011;69665;55.822;37.330;2024-02-21T01:57:39;13.50;;;5.35;;
72941;SDS011;69665;55.822;37.330;2024-02-21T02:00:07;12.57;;;5.93;;
72941;SDS011;69665;55.822;37.330;2024-02-21T02:02:36;14.32;;;6.10;;
72941;SDS011;69665;55.822;37.330;2024-02-21T02:05:03;12.05;;;5.70;;
72941;SDS011;69665;55.822;37.330;2024-02-21T02:07:31;11.27;;;5.18;;
72941;SDS011;69665;55.822;37.330;2024-02-21T02:09:57;13.52;;;5.22;;
72941;SDS011;69665;55.822;37.330;2024-02-21T02:12:23;15.02;;;6.30;;
72941;SDS011;69665;55.822;37.330;2024-02-21T02:15:02;14.57;;;5.70;;
72941;SDS011;69665;55.822;37.330;2024-02-21T02:17:32;16.65;;;7.32;;
72941;SDS011;69665;55.822;37.330;2024-02-21T02:19:57;14.07;;;5.93;;
72941;SDS011;69665;55.822;37.330;2024-02-21T02:22:25;13.95;;;5.78;;
72941;SDS011;69665;55.822;37.330;2024-02-21T02:24:54;13.45;;;6.07;;
72941;SDS011;69665;55.822;37.330;2024-02-21T02:27:20;8.85;;;5.18;;
72941;SDS011;69665;55.822;37.330;2024-02-21T02:29:51;12.95;;;5.63;;
72941;SDS011;69665;55.822;37.330;2024-02-21T02:32:17;12.38;;;5.35;;
72941;SDS011;69665;55.822;37.330;2024-02-21T02:34:43;12.07;;;5.82;;
72941;SDS011;69665;55.822;37.330;2024-02-21T02:37:08;13.98;;;5.35;;
72941;SDS011;69665;55.822;37.330;2024-02-21T02:39:34;14.65;;;6.78;;
72941;SDS011;69665;55.822;37.330;2024-02-21T02:41:59;12.57;;;5.78;;
72941;SDS011;69665;55.822;37.330;2024-02-21T02:44:25;14.00;;;6.32;;
72941;SDS011;69665;55.822;37.330;2024-02-21T02:46:50;14.73;;;5.75;;
72941;SDS011;69665;55.822;37.330;2024-02-21T02:49:16;12.45;;;5.88;;
72941;SDS011;69665;55.822;37.330;2024-02-21T02:51:42;14.98;;;6.45;;
72941;SDS011;69665;55.822;37.330;2024-02-21T02:54:08;12.57;;;5.97;;
72941;SDS011;69665;55.822;37.330;2024-02-21T02:56:34;11.68;;;5.28;;
72941;SDS011;69665;55.822;37.330;2024-02-21T02:59:00;15.95;;;7.05;;
72941;SDS011;69665;55.822;37.330;2024-02-21T03:01:25;14.48;;;6.28;;
72941;SDS011;69665;55.822;37.330;2024-02-21T03:03:51;14.18;;;6.35;;
72941;SDS011;69665;55.822;37.330;2024-02-21T03:06:17;14.32;;;6.25;;
72941;SDS011;69665;55.822;37.330;2024-02-21T03:08:42;9.90;;;4.93;;
72941;SDS011;69665;55.822;37.330;2024-02-21T03:11:08;14.73;;;5.63;;
72941;SDS011;69665;55.822;37.330;2024-02-21T03:13:34;11.00;;;6.22;;
72941;SDS011;69665;55.822;37.330;2024-02-21T03:15:59;13.15;;;6.30;;
72941;SDS011;69665;55.822;37.330;2024-02-21T03:18:25;12.68;;;6.40;;
72941;SDS011;69665;55.822;37.330;2024-02-21T03:20:50;17.90;;;6.40;;
72941;SDS011;69665;55.822;37.330;2024-02-21T03:23:16;17.13;;;7.35;;
72941;SDS011;69665;55.822;37.330;2024-02-21T03:25:41;14.48;;;7.30;;
72941;SDS011;69665;55.822;37.330;2024-02-21T03:28:07;14.43;;;6.80;;
72941;SDS011;69665;55.822;37.330;2024-02-21T03:30:33;16.08;;;7.45;;
72941;SDS011;69665;55.822;37.330;2024-02-21T03:32:59;14.50;;;6.40;;
72941;SDS011;69665;55.822;37.330;2024-02-21T03:35:24;16.05;;;6.88;;
72941;SDS011;69665;55.822;37.330;2024-02-21T03:37:52;15.68;;;7.15;;
72941;SDS011;69665;55.822;37.330;2024-02-21T03:40:17;18.08;;;7.32;;
72941;SDS011;69665;55.822;37.330;2024-02-21T03:42:43;18.50;;;7.20;;
72941;SDS011;69665;55.822;37.330;2024-02-21T03:45:09;18.02;;;8.27;;
72941;SDS011;69665;55.822;37.330;2024-02-21T03:47:34;16.67;;;8.27;;
72941;SDS011;69665;55.822;37.330;2024-02-21T03:50:00;15.32;;;6.32;;
72941;SDS011;69665;55.822;37.330;2024-02-21T03:52:26;19.38;;;8.20;;
72941;SDS011;69665;55.822;37.330;2024-02-21T03:54:52;20.50;;;7.90;;
72941;SDS011;69665;55.822;37.330;2024-02-21T03:57:18;14.23;;;6.88;;
72941;SDS011;69665;55.822;37.330;2024-02-21T03:59:44;24.65;;;8.07;;
72941;SDS011;69665;55.822;37.330;2024-02-21T04:02:09;14.18;;;6.32;;
72941;SDS011;69665;55.822;37.330;2024-02-21T04:04:35;17.50;;;7.35;;
72941;SDS011;69665;55.822;37.330;2024-02-21T04:07:04;14.70;;;6.75;;
72941;SDS011;69665;55.822;37.330;2024-02-21T04:09:33;16.02;;;6.93;;
72941;SDS011;69665;55.822;37.330;2024-02-21T04:12:00;18.23;;;6.82;;
72941;SDS011;69665;55.822;37.330;2024-02-21T04:14:26;14.40;;;6.55;;
72941;SDS011;69665;55.822;37.330;2024-02-21T04:16:51;16.70;;;7.22;;
72941;SDS011;69665;55.822;37.330;2024-02-21T04:19:17;13.57;;;5.70;;
72941;SDS011;69665;55.822;37.330;2024-02-21T04:21:42;13.15;;;6.57;;
72941;SDS011;69665;55.822;37.330;2024-02-21T04:24:08;13.23;;;6.63;;
72941;SDS011;69665;55.822;37.330;2024-02-21T04:26:34;14.50;;;6.85;;
72941;SDS011;69665;55.822;37.330;2024-02-21T04:28:59;11.85;;;6.03;;
72941;SDS011;69665;55.822;37.330;2024-02-21T04:31:25;15.48;;;7.10;;
72941;SDS011;69665;55.822;37.330;2024-02-21T04:33:51;14.43;;;6.75;;
72941;SDS011;69665;55.822;37.330;2024-02-21T04:36:17;18.00;;;7.85;;
72941;SDS011;69665;55.822;37.330;2024-02-21T04:38:42;17.33;;;7.32;;
72941;SDS011;69665;55.822;37.330;2024-02-21T04:41:08;17.50;;;7.22;;
72941;SDS011;69665;55.822;37.330;2024-02-21T04:43:33;16.52;;;7.20;;
72941;SDS011;69665;55.822;37.330;2024-02-21T04:45:59;14.48;;;7.18;;
72941;SDS011;69665;55.822;37.330;2024-02-21T04:48:25;17.70;;;7.38;;
72941;SDS011;69665;55.822;37.330;2024-02-21T04:50:51;16.70;;;7.22;;
72941;SDS011;69665;55.822;37.330;2024-02-21T04:53:17;20.23;;;8.45;;
72941;SDS011;69665;55.822;37.330;2024-02-21T04:55:42;17.95;;;7.75;;
72941;SDS011;69665;55.822;37.330;2024-02-21T04:58:08;16.05;;;6.63;;
72941;SDS011;69665;55.822;37.330;2024-02-21T05:00:34;17.08;;;7.75;;
72941;SDS011;69665;55.822;37.330;2024-02-21T05:03:00;18.67;;;7.13;;
72941;SDS011;69665;55.822;37.330;2024-02-21T05:05:25;14.50;;;6.65;;
72941;SDS011;69665;55.822;37.330;2024-02-21T05:07:51;18.13;;;8.15;;
72941;SDS011;69665;55.822;37.330;2024-02-21T05:10:16;25.75;;;7.25;;
72941;SDS011;69665;55.822;37.330;2024-02-21T05:12:44;16.98;;;8.45;;
72941;SDS011;69665;55.822;37.330;2024-02-21T05:15:10;16.50;;;7.07;;
72941;SDS011;69665;55.822;37.330;2024-02-21T05:17:35;18.75;;;7.97;;
72941;SDS011;69665;55.822;37.330;2024-02-21T05:20:01;15.60;;;8.10;;
72941;SDS011;69665;55.822;37.330;2024-02-21T05:22:29;21.73;;;7.97;;
72941;SDS011;69665;55.822;37.330;2024-02-21T05:24:55;21.20;;;8.02;;
72941;SDS011;69665;55.822;37.330;2024-02-21T05:27:20;15.15;;;6.72;;
72941;SDS011;69665;55.822;37.330;2024-02-21T05:29:46;16.83;;;7.78;;
72941;SDS011;69665;55.822;37.330;2024-02-21T05:32:13;21.25;;;8.20;;
72941;SDS011;69665;55.822;37.330;2024-02-21T05:34:39;19.20;;;8.43;;
72941;SDS011;69665;55.822;37.330;2024-02-21T05:37:05;15.15;;;7.97;;
72941;SDS011;69665;55.822;37.330;2024-02-21T05:39:30;20.35;;;8.75;;
72941;SDS011;69665;55.822;37.330;2024-02-21T05:41:56;16.77;;;7.28;;
72941;SDS011;69665;55.822;37.330;2024-02-21T05:44:21;16.17;;;7.57;;
72941;SDS011;69665;55.822;37.330;2024-02-21T05:46:47;17.60;;;8.48;;
72941;SDS011;69665;55.822;37.330;2024-02-21T05:49:13;17.70;;;8.27;;
72941;SDS011;69665;55.822;37.330;2024-02-21T05:51:39;18.33;;;7.82;;
72941;SDS011;69665;55.822;37.330;2024-02-21T05:54:05;16.05;;;7.35;;
72941;SDS011;69665;55.822;37.330;2024-02-21T05:56:30;16.63;;;8.13;;
72941;SDS011;69665;55.822;37.330;2024-02-21T05:58:56;17.67;;;9.05;;
72941;SDS011;69665;55.822;37.330;2024-02-21T06:01:21;18.38;;;8.23;;
72941;SDS011;69665;55.822;37.330;2024-02-21T06:03:47;22.58;;;9.07;;
72941;SDS011;69665;55.822;37.330;2024-02-21T06:06:13;17.08;;;8.40;;
72941;SDS011;69665;55.822;37.330;2024-02-21T06:08:40;15.35;;;7.18;;
72941;SDS011;69665;55.822;37.330;2024-02-21T06:11:06;15.38;;;8.27;;
72941;SDS011;69665;55.822;37.330;2024-02-21T06:13:31;17.90;;;8.27;;
72941;SDS011;69665;55.822;37.330;2024-02-21T06:15:57;17.73;;;8.90;;
72941;SDS011;69665;55.822;37.330;2024-02-21T06:18:22;14.70;;;7.15;;
72941;SDS011;69665;55.822;37.330;2024-02-21T06:20:51;18.08;;;8.45;;
72941;SDS011;69665;55.822;37.330;2024-02-21T06:23:17;15.80;;;7.25;;
72941;SDS011;69665;55.822;37.330;2024-02-21T06:25:43;18.35;;;8.25;;
72941;SDS011;69665;55.822;37.330;2024-02-21T06:28:08;14.70;;;6.97;;
72941;SDS011;69665;55.822;37.330;2024-02-21T06:30:35;20.73;;;7.32;;
72941;SDS011;69665;55.822;37.330;2024-02-21T06:33:01;19.05;;;7.75;;
72941;SDS011;69665;55.822;37.330;2024-02-21T06:35:28;13.70;;;7.45;;
72941;SDS011;69665;55.822;37.330;2024-02-21T06:37:54;17.23;;;7.10;;
72941;SDS011;69665;55.822;37.330;2024-02-21T06:40:23;15.35;;;7.53;;
72941;SDS011;69665;55.822;37.330;2024-02-21T06:42:49;16.48;;;7.38;;
72941;SDS011;69665;55.822;37.330;2024-02-21T06:45:15;19.73;;;8.60;;
72941;SDS011;69665;55.822;37.330;2024-02-21T06:47:41;16.67;;;7.35;;
72941;SDS011;69665;55.822;37.330;2024-02-21T06:50:07;16.38;;;7.05;;
72941;SDS011;69665;55.822;37.330;2024-02-21T06:52:34;17.20;;;7.32;;
72941;SDS011;69665;55.822;37.330;2024-02-21T06:55:00;16.80;;;7.40;;
72941;SDS011;69665;55.822;37.330;2024-02-21T06:57:25;16.63;;;7.28;;
72941;SDS011;69665;55.822;37.330;2024-02-21T06:59:51;16.85;;;6.68;;
72941;SDS011;69665;55.822;37.330;2024-02-21T07:02:17;16.73;;;8.50;;
72941;SDS011;69665;55.822;37.330;2024-02-21T07:04:42;15.32;;;6.75;;
72941;SDS011;69665;55.822;37.330;2024-02-21T07:07:09;14.80;;;6.97;;
72941;SDS011;69665;55.822;37.330;2024-02-21T07:09:34;18.33;;;8.27;;
72941;SDS011;69665;55.822;37.330;2024-02-21T07:12:01;13.23;;;6.47;;
72941;SDS011;69665;55.822;37.330;2024-02-21T07:14:29;19.52;;;7.88;;
72941;SDS011;69665;55.822;37.330;2024-02-21T07:19:22;14.65;;;7.25;;
72941;SDS011;69665;55.822;37.330;2024-02-21T07:21:48;15.30;;;6.75;;
72941;SDS011;69665;55.822;37.330;2024-02-21T07:24:14;16.90;;;6.50;;
72941;SDS011;69665;55.822;37.330;2024-02-21T07:26:43;15.50;;;7.28;;
72941;SDS011;69665;55.822;37.330;2024-02-21T07:29:09;15.70;;;7.53;;
72941;SDS011;69665;55.822;37.330;2024-02-21T07:31:38;13.82;;;6.72;;
72941;SDS011;69665;55.822;37.330;2024-02-21T07:34:06;16.67;;;6.90;;
72941;SDS011;69665;55.822;37.330;2024-02-21T07:36:31;16.50;;;7.53;;
72941;SDS011;69665;55.822;37.330;2024-02-21T07:38:57;14.20;;;6.85;;
72941;SDS011;69665;55.822;37.330;2024-02-21T07:41:23;16.90;;;7.78;;
72941;SDS011;69665;55.822;37.330;2024-02-21T07:43:51;13.95;;;6.97;;
72941;SDS011;69665;55.822;37.330;2024-02-21T07:46:20;13.35;;;7.47;;
72941;SDS011;69665;55.822;37.330;2024-02-21T07:48:46;18.73;;;7.13;;
72941;SDS011;69665;55.822;37.330;2024-02-21T07:51:12;15.73;;;6.95;;
72941;SDS011;69665;55.822;37.330;2024-02-21T07:53:40;13.68;;;7.13;;
72941;SDS011;69665;55.822;37.330;2024-02-21T07:56:13;15.80;;;7.22;;
72941;SDS011;69665;55.822;37.330;2024-02-21T07:58:40;14.18;;;7.57;;
72941;SDS011;69665;55.822;37.330;2024-02-21T08:01:07;15.93;;;7.53;;
72941;SDS011;69665;55.822;37.330;2024-02-21T08:03:33;13.23;;;7.82;;
72941;SDS011;69665;55.822;37.330;2024-02-21T08:05:58;13.90;;;7.93;;
72941;SDS011;69665;55.822;37.330;2024-02-21T08:08:24;14.60;;;8.32;;
72941;SDS011;69665;55.822;37.330;2024-02-21T08:10:50;15.10;;;8.48;;
72941;SDS011;69665;55.822;37.330;2024-02-21T08:13:16;14.10;;;8.10;;
72941;SDS011;69665;55.822;37.330;2024-02-21T08:15:41;12.88;;;7.60;;
72941;SDS011;69665;55.822;37.330;2024-02-21T08:18:07;14.13;;;8.30;;
72941;SDS011;69665;55.822;37.330;2024-02-21T08:20:33;12.52;;;7.63;;
72941;SDS011;69665;55.822;37.330;2024-02-21T08:22:59;15.88;;;8.60;;
72941;SDS011;69665;55.822;37.330;2024-02-21T08:25:24;12.35;;;8.10;;
72941;SDS011;69665;55.822;37.330;2024-02-21T08:27:50;15.55;;;8.32;;
72941;SDS011;69665;55.822;37.330;2024-02-21T08:30:17;13.95;;;8.63;;
72941;SDS011;69665;55.822;37.330;2024-02-21T08:32:42;18.52;;;9.13;;
72941;SDS011;69665;55.822;37.330;2024-02-21T08:35:08;13.30;;;7.85;;
72941;SDS011;69665;55.822;37.330;2024-02-21T08:37:34;15.48;;;8.80;;
72941;SDS011;69665;55.822;37.330;2024-02-21T08:39:59;15.63;;;8.80;;
72941;SDS011;69665;55.822;37.330;2024-02-21T08:42:34;15.75;;;8.98;;
72941;SDS011;69665;55.822;37.330;2024-02-21T08:45:04;16.75;;;8.88;;
72941;SDS011;69665;55.822;37.330;2024-02-21T08:47:31;14.25;;;8.45;;
72941;SDS011;69665;55.822;37.330;2024-02-21T08:49:56;15.85;;;8.60;;
72941;SDS011;69665;55.822;37.330;2024-02-21T08:52:22;18.75;;;8.85;;
72941;SDS011;69665;55.822;37.330;2024-02-21T08:54:47;16.50;;;8.40;;
72941;SDS011;69665;55.822;37.330;2024-02-21T08:57:13;17.58;;;8.27;;
72941;SDS011;69665;55.822;37.330;2024-02-21T08:59:39;18.25;;;8.35;;
72941;SDS011;69665;55.822;37.330;2024-02-21T09:02:05;17.25;;;7.95;;
72941;SDS011;69665;55.822;37.330;2024-02-21T09:04:32;17.58;;;8.73;;
72941;SDS011;69665;55.822;37.330;2024-02-21T09:06:58;20.33;;;8.98;;
72941;SDS011;69665;55.822;37.330;2024-02-21T09:09:24;18.55;;;9.32;;
72941;SDS011;69665;55.822;37.330;2024-02-21T09:11:50;14.52;;;7.40;;
72941;SDS011;69665;55.822;37.330;2024-02-21T09:14:16;14.60;;;7.72;;
72941;SDS011;69665;55.822;37.330;2024-02-21T09:16:41;15.05;;;7.72;;
72941;SDS011;69665;55.822;37.330;2024-02-21T09:19:07;14.68;;;7.65;;
72941;SDS011;69665;55.822;37.330;2024-02-21T09:21:36;17.33;;;8.60;;
72941;SDS011;69665;55.822;37.330;2024-02-21T09:24:02;18.80;;;8.10;;
72941;SDS011;69665;55.822;37.330;2024-02-21T09:26:28;16.67;;;7.38;;
72941;SDS011;69665;55.822;37.330;2024-02-21T09:28:53;16.92;;;8.32;;
72941;SDS011;69665;55.822;37.330;2024-02-21T09:31:19;15.48;;;8.18;;
72941;SDS011;69665;55.822;37.330;2024-02-21T09:33:45;18.00;;;8.27;;
72941;SDS011;69665;55.822;37.330;2024-02-21T09:36:10;19.98;;;7.90;;
72941;SDS011;69665;55.822;37.330;2024-02-21T09:38:36;18.05;;;7.88;;
72941;SDS011;69665;55.822;37.330;2024-02-21T09:41:18;16.83;;;8.43;;
72941;SDS011;69665;55.822;37.330;2024-02-21T09:43:48;17.10;;;7.72;;
72941;SDS011;69665;55.822;37.330;2024-02-21T09:46:18;18.50;;;8.10;;
72941;SDS011;69665;55.822;37.330;2024-02-21T09:51:30;16.10;;;7.43;;
72941;SDS011;69665;55.822;37.330;2024-02-21T09:53:59;13.57;;;7.10;;
72941;SDS011;69665;55.822;37.330;2024-02-21T09:56:26;17.80;;;7.25;;
72941;SDS011;69665;55.822;37.330;2024-02-21T09:58:51;17.50;;;7.93;;
72941;SDS011;69665;55.822;37.330;2024-02-21T10:01:17;16.73;;;7.55;;
72941;SDS011;69665;55.822;37.330;2024-02-21T10:03:42;17.45;;;8.18;;
72941;SDS011;69665;55.822;37.330;2024-02-21T10:06:10;18.05;;;7.55;;
72941;SDS011;69665;55.822;37.330;2024-02-21T10:08:36;15.60;;;7.50;;
72941;SDS011;69665;55.822;37.330;2024-02-21T10:11:01;14.15;;;6.43;;
72941;SDS011;69665;55.822;37.330;2024-02-21T10:13:28;13.52;;;6.95;;
72941;SDS011;69665;55.822;37.330;2024-02-21T10:18:28;17.38;;;7.50;;
72941;SDS011;69665;55.822;37.330;2024-02-21T10:21:03;16.98;;;7.15;;
72941;SDS011;69665;55.822;37.330;2024-02-21T10:26:16;17.50;;;7.82;;
72941;SDS011;69665;55.822;37.330;2024-02-21T10:28:42;18.00;;;7.40;;
72941;SDS011;69665;55.822;37.330;2024-02-21T10:31:23;17.02;;;7.80;;
72941;SDS011;69665;55.822;37.330;2024-02-21T10:34:23;14.35;;;6.63;;
72941;SDS011;69665;55.822;37.330;2024-02-21T10:36:43;14.77;;;6.65;;
72941;SDS011;69665;55.822;37.330;2024-02-21T10:39:09;17.23;;;7.65;;
72941;SDS011;69665;55.822;37.330;2024-02-21T10:41:34;14.75;;;7.13;;
72941;SDS011;69665;55.822;37.330;2024-02-21T10:44:02;16.92;;;7.80;;
72941;SDS011;69665;55.822;37.330;2024-02-21T10:46:31;19.58;;;7.68;;
72941;SDS011;69665;55.822;37.330;2024-02-21T10:49:01;15.23;;;6.85;;
72941;SDS011;69665;55.822;37.330;2024-02-21T10:51:35;13.98;;;6.55;;
72941;SDS011;69665;55.822;37.330;2024-02-21T10:56:55;14.30;;;6.20;;
72941;SDS011;69665;55.822;37.330;2024-02-21T10:59:22;12.38;;;5.93;;
72941;SDS011;69665;55.822;37.330;2024-02-21T11:01:49;16.73;;;6.90;;
72941;SDS011;69665;55.822;37.330;2024-02-21T11:04:14;16.45;;;8.13;;
72941;SDS011;69665;55.822;37.330;2024-02-21T11:06:40;10.88;;;5.93;;
72941;SDS011;69665;55.822;37.330;2024-02-21T11:09:08;17.90;;;7.10;;
72941;SDS011;69665;55.822;37.330;2024-02-21T11:11:35;16.60;;;7.30;;
72941;SDS011;69665;55.822;37.330;2024-02-21T11:14:03;13.38;;;6.28;;
72941;SDS011;69665;55.822;37.330;2024-02-21T11:16:34;18.10;;;6.47;;
72941;SDS011;69665;55.822;37.330;2024-02-21T11:19:05;13.98;;;6.65;;
72941;SDS011;69665;55.822;37.330;2024-02-21T11:21:37;13.60;;;5.85;;
72941;SDS011;69665;55.822;37.330;2024-02-21T11:24:03;18.33;;;7.32;;
72941;SDS011;69665;55.822;37.330;2024-02-21T11:26:30;15.75;;;6.88;;
72941;SDS011;69665;55.822;37.330;2024-02-21T11:28:57;15.50;;;6.80;;
72941;SDS011;69665;55.822;37.330;2024-02-21T11:31:25;15.98;;;7.15;;
72941;SDS011;69665;55.822;37.330;2024-02-21T11:33:52;14.98;;;7.22;;
72941;SDS011;69665;55.822;37.330;2024-02-21T11:36:25;17.85;;;7.53;;
72941;SDS011;69665;55.822;37.330;2024-02-21T11:38:51;15.23;;;6.72;;
72941;SDS011;69665;55.822;37.330;2024-02-21T11:41:18;14.27;;;6.93;;
72941;SDS011;69665;55.822;37.330;2024-02-21T11:43:50;14.18;;;5.95;;
72941;SDS011;69665;55.822;37.330;2024-02-21T11:46:18;12.27;;;5.78;;
72941;SDS011;69665;55.822;37.330;2024-02-21T11:48:44;16.25;;;7.20;;
72941;SDS011;69665;55.822;37.330;2024-02-21T11:51:22;13.02;;;6.15;;
72941;SDS011;69665;55.822;37.330;2024-02-21T11:53:53;14.00;;;6.28;;
72941;SDS011;69665;55.822;37.330;2024-02-21T11:56:19;17.67;;;6.80;;
72941;SDS011;69665;55.822;37.330;2024-02-21T11:58:46;16.52;;;7.22;;
72941;SDS011;69665;55.822;37.330;2024-02-21T12:01:13;18.48;;;7.45;;
72941;SDS011;69665;55.822;37.330;2024-02-21T12:03:39;18.52;;;7.43;;
72941;SDS011;69665;55.822;37.330;2024-02-21T12:06:06;13.00;;;6.45;;
72941;SDS011;69665;55.822;37.330;2024-02-21T12:08:42;15.52;;;6.85;;
72941;SDS011;69665;55.822;37.330;2024-02-21T12:11:18;12.25;;;6.28;;
72941;SDS011;69665;55.822;37.330;2024-02-21T12:13:45;17.02;;;6.80;;
72941;SDS011;69665;55.822;37.330;2024-02-21T12:16:11;16.08;;;6.80;;
72941;SDS011;69665;55.822;37.330;2024-02-21T12:18:36;16.73;;;7.35;;
72941;SDS011;69665;55.822;37.330;2024-02-21T12:21:04;17.15;;;7.22;;
72941;SDS011;69665;55.822;37.330;2024-02-21T12:23:30;15.13;;;6.80;;
72941;SDS011;69665;55.822;37.330;2024-02-21T12:25:56;15.63;;;6.65;;
72941;SDS011;69665;55.822;37.330;2024-02-21T12:28:21;21.27;;;6.60;;
72941;SDS011;69665;55.822;37.330;2024-02-21T12:30:47;17.00;;;8.02;;
72941;SDS011;69665;55.822;37.330;2024-02-21T12:33:13;15.38;;;6.65;;
72941;SDS011;69665;55.822;37.330;2024-02-21T12:35:39;14.90;;;7.13;;
72941;SDS011;69665;55.822;37.330;2024-02-21T12:38:05;13.40;;;6.20;;
72941;SDS011;69665;55.822;37.330;2024-02-21T12:40:31;16.90;;;7.10;;
72941;SDS011;69665;55.822;37.330;2024-02-21T12:43:01;15.77;;;7.15;;
72941;SDS011;69665;55.822;37.330;2024-02-21T12:45:28;17.20;;;7.22;;
72941;SDS011;69665;55.822;37.330;2024-02-21T12:47:54;13.50;;;6.55;;
72941;SDS011;69665;55.822;37.330;2024-02-21T12:50:19;15.18;;;6.78;;
72941;SDS011;69665;55.822;37.330;2024-02-21T12:52:45;16.02;;;6.82;;
72941;SDS011;69665;55.822;37.330;2024-02-21T12:55:11;15.10;;;7.00;;
72941;SDS011;69665;55.822;37.330;2024-02-21T12:57:39;17.30;;;7.40;;
72941;SDS011;69665;55.822;37.330;2024-02-21T13:00:05;17.63;;;7.45;;
72941;SDS011;69665;55.822;37.330;2024-02-21T13:02:34;13.48;;;5.50;;
72941;SDS011;69665;55.822;37.330;2024-02-21T13:05:02;17.27;;;7.43;;
72941;SDS011;69665;55.822;37.330;2024-02-21T13:07:29;19.13;;;8.15;;
72941;SDS011;69665;55.822;37.330;2024-02-21T13:09:57;15.77;;;7.80;;
72941;SDS011;69665;55.822;37.330;2024-02-21T13:12:23;15.93;;;8.02;;
72941;SDS011;69665;55.822;37.330;2024-02-21T13:14:51;16.15;;;7.78;;
72941;SDS011;69665;55.822;37.330;2024-02-21T13:17:17;16.10;;;7.35;;
72941;SDS011;69665;55.822;37.330;2024-02-21T13:19:42;17.80;;;8.05;;
72941;SDS011;69665;55.822;37.330;2024-02-21T13:22:08;16.08;;;7.50;;
72941;SDS011;69665;55.822;37.330;2024-02-21T13:24:34;17.13;;;7.45;;
72941;SDS011;69665;55.822;37.330;2024-02-21T13:27:00;16.30;;;6.60;;
72941;SDS011;69665;55.822;37.330;2024-02-21T13:29:26;15.80;;;7.80;;
72941;SDS011;69665;55.822;37.330;2024-02-21T13:31:52;15.52;;;6.18;;
72941;SDS011;69665;55.822;37.330;2024-02-21T13:34:17;14.18;;;6.15;;
72941;SDS011;69665;55.822;37.330;2024-02-21T13:36:43;16.15;;;7.72;;
72941;SDS011;69665;55.822;37.330;2024-02-21T13:39:08;16.30;;;7.47;;
72941;SDS011;69665;55.822;37.330;2024-02-21T13:41:38;16.67;;;8.00;;
72941;SDS011;69665;55.822;37.330;2024-02-21T13:44:03;17.92;;;8.32;;
72941;SDS011;69665;55.822;37.330;2024-02-21T13:46:29;16.40;;;7.50;;
72941;SDS011;69665;55.822;37.330;2024-02-21T13:49:02;15.80;;;6.88;;
72941;SDS011;69665;55.822;37.330;2024-02-21T13:51:30;19.38;;;8.10;;
72941;SDS011;69665;55.822;37.330;2024-02-21T13:53:56;17.27;;;6.90;;
72941;SDS011;69665;55.822;37.330;2024-02-21T13:56:22;18.92;;;8.23;;
72941;SDS011;69665;55.822;37.330;2024-02-21T13:58:47;17.05;;;8.20;;
72941;SDS011;69665;55.822;37.330;2024-02-21T14:01:13;18.92;;;8.35;;
72941;SDS011;69665;55.822;37.330;2024-02-21T14:03:38;19.63;;;8.00;;
72941;SDS011;69665;55.822;37.330;2024-02-21T14:06:04;17.10;;;7.93;;
72941;SDS011;69665;55.822;37.330;2024-02-21T14:08:30;18.35;;;8.70;;
72941;SDS011;69665;55.822;37.330;2024-02-21T14:10:56;16.63;;;6.68;;
72941;SDS011;69665;55.822;37.330;2024-02-21T14:13:24;16.27;;;7.50;;
72941;SDS011;69665;55.822;37.330;2024-02-21T14:15:49;16.27;;;7.38;;
72941;SDS011;69665;55.822;37.330;2024-02-21T14:18:15;18.88;;;7.70;;
72941;SDS011;69665;55.822;37.330;2024-02-21T14:20:41;18.75;;;6.80;;
72941;SDS011;69665;55.822;37.330;2024-02-21T14:23:07;21.42;;;8.65;;
72941;SDS011;69665;55.822;37.330;2024-02-21T14:25:32;19.90;;;8.90;;
72941;SDS011;69665;55.822;37.330;2024-02-21T14:27:58;17.67;;;8.27;;
72941;SDS011;69665;55.822;37.330;2024-02-21T14:30:26;17.33;;;7.70;;